| time (UTC) | temp F | wind direction | speed knots | gust knots | rain 1hr in | rain 24hr in | rain mn in | humidity % | barometer mb |
| 20260905191049 | 93 | 345 | 0.9 | 1.7 | 0.01 | 0.53 | 0.53 | 70 | 1014.4 |
| 20260905190534 | 92 | 345 | 0.9 | 1.7 | 0.01 | 0.53 | 0.53 | 71 | 1014.5 |
| 20260905190030 | 92 | 345 | 0.9 | 3.5 | 0.01 | 0.53 | 0.53 | 69 | 1014.5 |
| 20260905185526 | 92 | 345 | 0.9 | 3.5 | 0.01 | 0.53 | 0.53 | 71 | 1014.5 |
| 20260905185021 | 92 | 344 | 0.9 | 2.6 | 0.01 | 0.53 | 0.53 | 69 | 1014.7 |
| 20260905184526 | 91 | 344 | 0.9 | 2.6 | 0.01 | 0.53 | 0.53 | 70 | 1014.9 |
| 20260905184014 | 91 | 0 | 1.7 | 3.5 | 0.02 | 0.53 | 0.53 | 69 | 1014.9 |
| 20260905183511 | 91 | 41 | 0.9 | 3.5 | 0.02 | 0.53 | 0.53 | 68 | 1015.1 |
| 20260905182510 | 91 | 70 | 0.9 | 2.6 | 0.01 | 0.52 | 0.52 | 72 | 1015.1 |
| 20260905182009 | 91 | 67 | 0.9 | 2.6 | 0.01 | 0.52 | 0.52 | 69 | 1015.1 |
| 20260905181508 | 91 | 67 | 1.7 | 3.5 | 0.01 | 0.52 | 0.52 | 72 | 1015.1 |
| 20260905181010 | 90 | 343 | 0.9 | 3.5 | 0.01 | 0.52 | 0.52 | 69 | 1015.1 |
| 20260905180007 | 90 | 303 | 0.9 | 4.3 | 0.01 | 0.52 | 0.52 | 75 | 1015.2 |
| 20260905175500 | 90 | 55 | 0.9 | 2.6 | 0.01 | 0.52 | 0.52 | 74 | 1015.4 |
| 20260905174459 | 89 | 30 | 0.0 | 2.6 | 0.02 | 0.52 | 0.52 | 74 | 1015.5 |
| 20260905173958 | 89 | 309 | 0.0 | 1.7 | 0.01 | 0.51 | 0.51 | 77 | 1015.4 |
| 20260905173449 | 89 | 309 | 0.0 | 1.7 | 0.01 | 0.51 | 0.51 | 75 | 1015.4 |
| 20260905172947 | 88 | 309 | 0.0 | 2.6 | 0.01 | 0.51 | 0.51 | 76 | 1015.4 |
| 20260905171927 | 87 | 303 | 0.9 | 3.5 | 0.01 | 0.51 | 0.51 | 75 | 1015.4 |
| 20260905171422 | 87 | 303 | 0.9 | 3.5 | 0.01 | 0.51 | 0.51 | 76 | 1015.5 |
| 20260905170923 | 87 | 335 | 0.0 | 2.6 | 0.01 | 0.51 | 0.51 | 76 | 1015.6 |
| 20260905170415 | 86 | 97 | 0.9 | 3.5 | 0.02 | 0.51 | 0.51 | 78 | 1015.5 |
| 20260905165906 | 86 | 98 | 0.9 | 3.5 | 0.02 | 0.51 | 0.51 | 77 | 1015.6 |
| 20260905165407 | 85 | 76 | 0.9 | 3.5 | 0.02 | 0.51 | 0.51 | 78 | 1015.8 |
| 20260905164900 | 85 | 256 | 0.0 | 2.6 | 0.02 | 0.51 | 0.51 | 79 | 1015.6 |
| 20260905164401 | 84 | 256 | 0.9 | 3.5 | 0.01 | 0.50 | 0.50 | 80 | 1015.5 |
| 20260905163349 | 84 | 65 | 0.9 | 3.5 | 0.02 | 0.50 | 0.50 | 82 | 1015.5 |
| 20260905162851 | 83 | 141 | 0.9 | 3.5 | 0.02 | 0.50 | 0.50 | 80 | 1015.6 |
| 20260905162344 | 83 | 197 | 0.9 | 2.6 | 0.03 | 0.50 | 0.50 | 83 | 1015.5 |
| 20260905161836 | 83 | 111 | 0.0 | 2.6 | 0.03 | 0.50 | 0.50 | 84 | 1015.4 |
| 20260905161315 | 82 | 175 | 0.0 | 2.6 | 0.04 | 0.50 | 0.50 | 85 | 1015.5 |
| 20260905160307 | 81 | 155 | 0.0 | 0.0 | 0.04 | 0.49 | 0.49 | 88 | 1015.6 |
| 20260905155805 | 80 | 155 | 0.0 | 2.6 | 0.05 | 0.49 | 0.49 | 88 | 1015.7 |
| 20260905155306 | 79 | 155 | 0.9 | 2.6 | 0.06 | 0.49 | 0.49 | 88 | 1015.8 |
| 20260905154746 | 79 | 250 | 0.9 | 2.6 | 0.07 | 0.49 | 0.49 | 88 | 1015.8 |
| 20260905153745 | 78 | 340 | 0.0 | 2.6 | 0.08 | 0.48 | 0.48 | 90 | 1015.8 |
| 20260905153245 | 78 | 261 | 0.0 | 1.7 | 0.09 | 0.48 | 0.48 | 91 | 1015.6 |
| 20260905152743 | 77 | 296 | 0.0 | 0.0 | 0.10 | 0.48 | 0.48 | 92 | 1015.5 |
| 20260905152236 | 77 | 57 | 0.0 | 0.0 | 0.10 | 0.47 | 0.47 | 93 | 1015.6 |
| 20260905151730 | 77 | 59 | 0.9 | 2.6 | 0.10 | 0.47 | 0.47 | 94 | 1015.7 |
| 20260905150724 | 76 | 128 | 0.9 | 1.7 | 0.11 | 0.45 | 0.46 | 94 | 1015.8 |
| 20260905150212 | 75 | 85 | 0.0 | 1.7 | 0.12 | 0.45 | 0.45 | 94 | 1015.8 |
| 20260905145713 | 75 | 85 | 0.0 | 2.6 | 0.12 | 0.44 | 0.44 | 94 | 1015.9 |
| 20260905145210 | 74 | 96 | 0.9 | 2.6 | 0.13 | 0.43 | 0.43 | 94 | 1015.9 |
| 20260905144706 | 74 | 139 | 0.9 | 2.6 | 0.14 | 0.42 | 0.42 | 94 | 1016.0 |
| 20260905144205 | 74 | 103 | 0.0 | 2.6 | 0.15 | 0.41 | 0.41 | 94 | 1015.8 |
| 20260905143702 | 73 | 225 | 0.9 | 2.6 | 0.17 | 0.40 | 0.40 | 94 | 1015.7 |
| 20260905143202 | 73 | 305 | 0.9 | 3.5 | 0.20 | 0.39 | 0.39 | 94 | 1015.7 |
| 20260905142702 | 73 | 46 | 0.9 | 4.3 | 0.23 | 0.38 | 0.38 | 94 | 1015.8 |
| 20260905142159 | 72 | 38 | 0.9 | 4.3 | 0.26 | 0.37 | 0.38 | 94 | 1015.6 |
| 20260905141659 | 72 | 279 | 0.0 | 2.6 | 0.34 | 0.36 | 0.37 | 94 | 1015.4 |
| 20260905141159 | 71 | 267 | 0.0 | 2.6 | 0.35 | 0.35 | 0.36 | 93 | 1015.2 |
| 20260905140654 | 71 | 148 | 0.0 | 1.7 | 0.34 | 0.34 | 0.35 | 93 | 1015.4 |
| 20260905140154 | 71 | 41 | 0.0 | 1.7 | 0.33 | 0.33 | 0.33 | 93 | 1015.2 |
| 20260905135651 | 71 | 321 | 0.9 | 4.3 | 0.31 | 0.31 | 0.32 | 93 | 1015.0 |
| 20260905135135 | 71 | 321 | 0.9 | 4.3 | 0.30 | 0.30 | 0.30 | 92 | 1015.0 |
| 20260905133115 | 72 | 68 | 2.6 | 6.1 | 0.18 | 0.18 | 0.19 | 92 | 1015.2 |
| 20260905132615 | 72 | 181 | 4.3 | 13.0 | 0.15 | 0.15 | 0.15 | 92 | 1015.0 |
| 20260905132112 | 73 | 153 | 3.5 | 13.0 | 0.11 | 0.11 | 0.11 | 92 | 1015.0 |
| 20260905131612 | 74 | 34 | 0.9 | 3.5 | 0.01 | 0.01 | 0.02 | 93 | 1016.5 |
| 20260905131112 | 74 | 236 | 0.9 | 3.5 | 0.00 | 0.00 | 0.00 | 94 | 1015.9 |
| 20260905130605 | 74 | 94 | 0.9 | 5.2 | 0.00 | 0.00 | 0.00 | 94 | 1015.5 |
| 20260905124558 | 74 | 283 | 0.0 | 2.6 | 0.00 | 0.00 | 0.00 | 94 | 1015.5 |
| 20260905123050 | 74 | 34 | 0.0 | 1.7 | 0.00 | 0.00 | 0.00 | 94 | 1015.4 |
| 20260905122548 | 74 | 34 | 0.0 | 0.9 | 0.00 | 0.00 | 0.00 | 94 | 1014.9 |
| 20260905122025 | 74 | 34 | 0.0 | 0.0 | 0.00 | 0.00 | 0.00 | 94 | 1014.8 |
| 20260905121513 | 74 | 34 | 0.0 | 0.0 | 0.00 | 0.00 | 0.00 | 94 | 1014.8 |
| 20260905121007 | 74 | 34 | 0.0 | 0.0 | 0.00 | 0.00 | 0.00 | 94 | 1014.7 |
| 20260905120508 | 74 | 34 | 0.0 | 0.0 | 0.00 | 0.00 | 0.00 | 94 | 1014.7 |
| 20260905114925 | 74 | 34 | 0.0 | 0.0 | 0.00 | 0.00 | 0.00 | 94 | 1014.5 |
| 20260905113906 | 74 | 34 | 0.0 | 0.9 | 0.00 | 0.00 | 0.00 | 94 | 1014.3 |
| 20260905113405 | 74 | 34 | 0.0 | 0.9 | 0.00 | 0.00 | 0.00 | 94 | 1014.4 |
| 20260905112905 | 74 | 34 | 0.0 | 0.9 | 0.00 | 0.00 | 0.00 | 94 | 1014.3 |
| 20260905111904 | 74 | 34 | 0.0 | 1.7 | 0.00 | 0.00 | 0.00 | 94 | 1014.2 |
| 20260905111404 | 73 | 34 | 0.0 | 0.9 | 0.00 | 0.00 | 0.00 | 93 | 1014.1 |
| 20260905110855 | 73 | 34 | 0.0 | 0.9 | 0.00 | 0.00 | 0.00 | 93 | 1014.1 |
| 20260905105837 | 73 | 34 | 0.0 | 0.9 | 0.00 | 0.00 | 0.00 | 93 | 1014.1 |
| 20260905105310 | 73 | 34 | 0.0 | 0.9 | 0.00 | 0.00 | 0.00 | 93 | 1014.3 |
| 20260905104811 | 73 | 34 | 0.0 | 2.6 | 0.00 | 0.00 | 0.00 | 93 | 1014.3 |
| 20260905104305 | 73 | 34 | 0.0 | 2.6 | 0.00 | 0.00 | 0.00 | 93 | 1014.3 |
| 20260905103805 | 73 | 37 | 0.0 | 0.0 | 0.00 | 0.00 | 0.00 | 93 | 1014.4 |
| 20260905103304 | 73 | 37 | 0.0 | 0.0 | 0.00 | 0.00 | 0.00 | 93 | 1014.2 |
| 20260905102801 | 73 | 37 | 0.0 | 0.0 | 0.00 | 0.00 | 0.00 | 93 | 1014.3 |
| 20260905102257 | 74 | 37 | 0.0 | 0.0 | 0.00 | 0.00 | 0.00 | 93 | 1014.3 |
| 20260905101736 | 74 | 37 | 0.0 | 0.0 | 0.00 | 0.00 | 0.00 | 93 | 1014.2 |
| 20260905101235 | 73 | 37 | 0.0 | 0.0 | 0.00 | 0.00 | 0.00 | 93 | 1014.2 |
| 20260905100703 | 73 | 37 | 0.0 | 0.0 | 0.00 | 0.00 | 0.00 | 93 | 1014.1 |
| 20260905095702 | 74 | 37 | 0.0 | 0.0 | 0.00 | 0.00 | 0.00 | 93 | 1014.3 |
| 20260905095206 | 74 | 37 | 0.0 | 0.0 | 0.00 | 0.00 | 0.00 | 93 | 1014.2 |
| 20260905094657 | 74 | 37 | 0.0 | 0.0 | 0.00 | 0.00 | 0.00 | 93 | 1014.3 |
| 20260905094149 | 74 | 37 | 0.0 | 0.0 | 0.00 | 0.00 | 0.00 | 93 | 1014.2 |
| 20260905092621 | 74 | 37 | 0.0 | 0.0 | 0.00 | 0.00 | 0.00 | 93 | 1014.2 |
| 20260905091606 | 74 | 37 | 0.0 | 0.0 | 0.00 | 0.00 | 0.00 | 93 | 1014.1 |
| 20260905091110 | 74 | 37 | 0.0 | 0.0 | 0.00 | 0.00 | 0.00 | 93 | 1014.1 |
| 20260905090558 | 74 | 37 | 0.0 | 0.0 | 0.00 | 0.00 | 0.00 | 93 | 1014.0 |
| 20260905090058 | 74 | 37 | 0.0 | 0.0 | 0.00 | 0.00 | 0.00 | 93 | 1014.0 |
| 20260905085555 | 74 | 37 | 0.0 | 0.0 | 0.00 | 0.00 | 0.00 | 92 | 1014.0 |
| 20260905085040 | 74 | 37 | 0.0 | 0.0 | 0.00 | 0.00 | 0.00 | 92 | 1013.9 |
| 20260905084524 | 74 | 37 | 0.0 | 0.0 | 0.00 | 0.00 | 0.00 | 92 | 1013.7 |
| 20260905084005 | 74 | 37 | 0.0 | 0.0 | 0.00 | 0.00 | 0.00 | 92 | 1013.7 |
| 20260905083505 | 74 | 37 | 0.0 | 0.0 | 0.00 | 0.00 | 0.00 | 92 | 1013.6 |
| 20260905082504 | 74 | 37 | 0.0 | 0.0 | 0.00 | 0.00 | 0.00 | 92 | 1013.6 |
| 20260905081946 | 74 | 37 | 0.0 | 0.0 | 0.00 | 0.00 | 0.00 | 92 | 1013.6 |
| 20260905081446 | 74 | 37 | 0.0 | 0.0 | 0.00 | 0.00 | 0.00 | 92 | 1013.7 |
| 20260905075906 | 74 | 37 | 0.0 | 0.0 | 0.00 | 0.00 | 0.00 | 92 | 1013.7 |
| 20260905074848 | 74 | 37 | 0.0 | 0.0 | 0.00 | 0.00 | 0.00 | 92 | 1013.7 |
| 20260905074347 | 74 | 37 | 0.0 | 0.0 | 0.00 | 0.00 | 0.00 | 92 | 1013.7 |
| 20260905073328 | 75 | 37 | 0.0 | 0.0 | 0.00 | 0.00 | 0.00 | 92 | 1013.8 |
| 20260905072818 | 75 | 37 | 0.0 | 0.0 | 0.00 | 0.00 | 0.00 | 92 | 1014.0 |
| 20260905071801 | 75 | 37 | 0.0 | 0.0 | 0.00 | 0.00 | 0.00 | 91 | 1013.9 |
| 20260905071250 | 75 | 37 | 0.0 | 0.0 | 0.00 | 0.00 | 0.00 | 92 | 1014.0 |
| 20260905070738 | 75 | 37 | 0.0 | 0.0 | 0.00 | 0.00 | 0.00 | 92 | 1014.1 |
| 20260905070231 | 75 | 37 | 0.0 | 0.0 | 0.00 | 0.00 | 0.00 | 92 | 1014.1 |
| 20260905065215 | 75 | 37 | 0.0 | 0.0 | 0.00 | 0.00 | 0.00 | 92 | 1014.1 |
| 20260905064704 | 75 | 37 | 0.0 | 0.0 | 0.00 | 0.00 | 0.00 | 92 | 1014.1 |
| 20260905063159 | 76 | 37 | 0.0 | 0.0 | 0.00 | 0.00 | 0.00 | 92 | 1014.3 |
| 20260905062700 | 76 | 37 | 0.0 | 0.0 | 0.00 | 0.00 | 0.00 | 92 | 1014.3 |
| 20260905062200 | 76 | 37 | 0.0 | 0.0 | 0.00 | 0.00 | 0.00 | 92 | 1014.3 |
| 20260905061659 | 76 | 37 | 0.0 | 0.0 | 0.00 | 0.00 | 0.00 | 92 | 1014.3 |
| 20260905061154 | 76 | 37 | 0.0 | 0.0 | 0.00 | 0.00 | 0.00 | 92 | 1014.4 |
| 20260905060642 | 76 | 37 | 0.0 | 0.0 | 0.00 | 0.00 | 0.00 | 92 | 1014.5 |
| 20260905055626 | 76 | 37 | 0.0 | 0.0 | 0.00 | 0.00 | 0.00 | 92 | 1014.5 |
| 20260905055118 | 76 | 37 | 0.0 | 0.0 | 0.00 | 0.00 | 0.00 | 91 | 1014.6 |
| 20260905054607 | 76 | 37 | 0.0 | 0.0 | 0.00 | 0.00 | 0.00 | 91 | 1014.7 |
| 20260905053605 | 76 | 37 | 0.0 | 0.0 | 0.00 | 0.00 | 0.00 | 91 | 1014.6 |
| 20260905053106 | 76 | 37 | 0.0 | 0.0 | 0.00 | 0.00 | 0.00 | 91 | 1014.8 |
| 20260905052603 | 76 | 37 | 0.0 | 0.0 | 0.00 | 0.00 | 0.00 | 91 | 1014.9 |
| 20260905052051 | 76 | 37 | 0.0 | 0.0 | 0.00 | 0.00 | 0.00 | 91 | 1014.8 |
| 20260905051548 | 76 | 37 | 0.0 | 0.0 | 0.00 | 0.00 | 0.00 | 91 | 1014.8 |
| 20260905051033 | 76 | 37 | 0.0 | 0.0 | 0.00 | 0.00 | 0.00 | 91 | 1014.9 |
| 20260905050532 | 77 | 37 | 0.0 | 0.0 | 0.00 | 0.00 | 0.00 | 91 | 1014.8 |
| 20260905050018 | 77 | 37 | 0.0 | 0.9 | 0.00 | 0.00 | 0.00 | 91 | 1014.9 |
| 20260905045510 | 77 | 37 | 0.0 | 0.9 | 0.00 | 0.00 | 0.00 | 91 | 1015.0 |
| 20260905044444 | 77 | 37 | 0.0 | 0.0 | 0.00 | 0.00 | 0.00 | 90 | 1014.9 |
| 20260905043941 | 77 | 37 | 0.0 | 0.0 | 0.00 | 0.00 | 0.00 | 90 | 1015.0 |
| 20260905042920 | 77 | 37 | 0.0 | 0.0 | 0.00 | 0.00 | 0.00 | 91 | 1015.1 |
| 20260905042421 | 78 | 37 | 0.0 | 0.0 | 0.00 | 0.00 | 0.00 | 91 | 1015.1 |
| 20260905041919 | 78 | 37 | 0.0 | 0.0 | 0.00 | 0.00 | 0.00 | 91 | 1015.1 |
| 20260905041402 | 78 | 37 | 0.0 | 0.0 | 0.00 | 0.00 | 0.00 | 91 | 1015.2 |
| 20260905040902 | 78 | 37 | 0.0 | 0.0 | 0.00 | 0.00 | 0.00 | 90 | 1015.1 |
| 20260905040356 | 78 | 37 | 0.0 | 0.0 | 0.00 | 0.00 | 0.00 | 90 | 1015.1 |
| 20260905035856 | 78 | 37 | 0.0 | 0.0 | 0.00 | 0.00 | 0.00 | 90 | 1015.1 |
| 20260905034836 | 78 | 37 | 0.0 | 0.0 | 0.00 | 0.00 | 0.00 | 89 | 1014.9 |
| 20260905033806 | 78 | 37 | 0.0 | 0.0 | 0.00 | 0.00 | 0.00 | 89 | 1015.1 |
| 20260905033253 | 78 | 37 | 0.0 | 0.0 | 0.00 | 0.00 | 0.00 | 89 | 1015.0 |
| 20260905032745 | 78 | 37 | 0.0 | 0.0 | 0.00 | 0.00 | 0.00 | 89 | 1015.0 |
| 20260905032241 | 78 | 37 | 0.0 | 0.0 | 0.00 | 0.00 | 0.00 | 89 | 1015.0 |
| 20260905031743 | 79 | 37 | 0.0 | 0.0 | 0.00 | 0.00 | 0.00 | 89 | 1015.1 |
| 20260905031221 | 79 | 37 | 0.0 | 0.0 | 0.00 | 0.00 | 0.00 | 89 | 1015.2 |
| 20260905030721 | 79 | 37 | 0.0 | 0.0 | 0.00 | 0.00 | 0.00 | 90 | 1015.2 |
| 20260905030201 | 79 | 37 | 0.0 | 0.0 | 0.00 | 0.00 | 0.00 | 89 | 1015.2 |
| 20260905025656 | 79 | 37 | 0.0 | 0.0 | 0.00 | 0.00 | 0.00 | 89 | 1015.1 |
| 20260905025139 | 79 | 37 | 0.0 | 0.0 | 0.00 | 0.00 | 0.00 | 89 | 1015.1 |
| 20260905024636 | 80 | 37 | 0.0 | 0.0 | 0.00 | 0.00 | 0.00 | 89 | 1015.0 |
| 20260905023613 | 80 | 37 | 0.0 | 0.0 | 0.00 | 0.00 | 0.00 | 89 | 1015.0 |
| 20260905023110 | 80 | 37 | 0.0 | 0.0 | 0.00 | 0.00 | 0.00 | 88 | 1014.8 |
| 20260905022607 | 80 | 37 | 0.0 | 0.0 | 0.00 | 0.00 | 0.00 | 88 | 1014.8 |
| 20260905022107 | 80 | 37 | 0.0 | 0.0 | 0.00 | 0.00 | 0.00 | 87 | 1014.9 |
| 20260905021600 | 80 | 37 | 0.0 | 0.0 | 0.00 | 0.00 | 0.00 | 88 | 1014.8 |
| 20260905021104 | 80 | 37 | 0.0 | 0.0 | 0.00 | 0.00 | 0.00 | 87 | 1014.9 |
| 20260905020550 | 81 | 37 | 0.0 | 0.0 | 0.00 | 0.00 | 0.00 | 88 | 1015.0 |
| 20260905020050 | 81 | 37 | 0.0 | 0.0 | 0.00 | 0.00 | 0.00 | 88 | 1015.1 |
| 20260905015041 | 81 | 37 | 0.0 | 0.0 | 0.00 | 0.00 | 0.00 | 87 | 1014.9 |
| 20260905014522 | 81 | 37 | 0.0 | 0.0 | 0.00 | 0.00 | 0.00 | 87 | 1015.0 |
| 20260905014019 | 82 | 37 | 0.0 | 0.0 | 0.00 | 0.00 | 0.00 | 87 | 1015.0 |
| 20260905013518 | 82 | 37 | 0.0 | 0.0 | 0.00 | 0.00 | 0.00 | 87 | 1015.0 |
| 20260905013018 | 82 | 37 | 0.0 | 0.0 | 0.00 | 0.00 | 0.00 | 86 | 1015.0 |
| 20260905012504 | 82 | 37 | 0.0 | 0.0 | 0.00 | 0.00 | 0.00 | 87 | 1015.0 |
| 20260905011958 | 83 | 37 | 0.0 | 0.0 | 0.00 | 0.00 | 0.00 | 86 | 1015.0 |
| 20260905010948 | 83 | 37 | 0.0 | 0.0 | 0.00 | 0.00 | 0.00 | 86 | 1015.0 |
| 20260905010444 | 83 | 37 | 0.0 | 0.0 | 0.00 | 0.00 | 0.00 | 85 | 1015.0 |
| 20260905004908 | 84 | 37 | 0.0 | 0.0 | 0.00 | 0.00 | 0.00 | 84 | 1014.8 |
| 20260905004409 | 85 | 37 | 0.0 | 0.0 | 0.00 | 0.00 | 0.00 | 84 | 1014.7 |
| 20260905003904 | 85 | 37 | 0.0 | 0.0 | 0.00 | 0.00 | 0.00 | 82 | 1014.7 |
| 20260905003402 | 85 | 37 | 0.0 | 0.0 | 0.00 | 0.00 | 0.00 | 81 | 1014.6 |
| 20260905002903 | 85 | 37 | 0.0 | 0.0 | 0.00 | 0.00 | 0.00 | 82 | 1014.7 |
| 20260905002342 | 86 | 37 | 0.0 | 0.0 | 0.00 | 0.00 | 0.00 | 82 | 1014.6 |
| 20260905001842 | 86 | 37 | 0.0 | 0.0 | 0.00 | 0.00 | 0.00 | 82 | 1014.7 |
| 20260905001339 | 87 | 37 | 0.0 | 0.0 | 0.00 | 0.00 | 0.00 | 81 | 1014.7 |
| 20260905000839 | 87 | 37 | 0.0 | 0.0 | 0.00 | 0.00 | 0.00 | 81 | 1014.8 |
| 20260904235312 | 88 | 37 | 0.0 | 0.0 | 0.00 | 0.00 | 0.00 | 78 | 1014.7 |
| 20260904234801 | 88 | 37 | 0.0 | 0.0 | 0.00 | 0.00 | 0.00 | 76 | 1014.6 |
| 20260904234258 | 88 | 37 | 0.0 | 0.0 | 0.00 | 0.00 | 0.00 | 77 | 1014.7 |
| 20260904233759 | 88 | 37 | 0.0 | 0.0 | 0.00 | 0.00 | 0.00 | 76 | 1014.7 |
| 20260904232747 | 89 | 37 | 0.0 | 0.0 | 0.00 | 0.00 | 0.00 | 74 | 1014.8 |
| 20260904232232 | 89 | 37 | 0.0 | 0.0 | 0.00 | 0.00 | 0.00 | 74 | 1014.8 |
| 20260904231728 | 90 | 37 | 0.0 | 0.0 | 0.00 | 0.00 | 0.00 | 74 | 1014.7 |
| 20260904231218 | 90 | 37 | 0.0 | 0.0 | 0.00 | 0.00 | 0.00 | 72 | 1014.7 |
| 20260904230710 | 90 | 37 | 0.0 | 0.0 | 0.00 | 0.00 | 0.00 | 72 | 1014.8 |
| 20260904230209 | 91 | 37 | 0.0 | 0.0 | 0.00 | 0.00 | 0.00 | 72 | 1014.7 |
| 20260904224647 | 92 | 37 | 0.0 | 1.7 | 0.00 | 0.00 | 0.00 | 68 | 1014.6 |
| 20260904224144 | 92 | 37 | 0.0 | 1.7 | 0.00 | 0.00 | 0.00 | 69 | 1014.6 |
| 20260904223646 | 92 | 37 | 0.0 | 2.6 | 0.00 | 0.00 | 0.00 | 68 | 1014.7 |
| 20260904222642 | 93 | 48 | 0.9 | 2.6 | 0.00 | 0.00 | 0.00 | 67 | 1014.8 |
| 20260904222138 | 94 | 48 | 0.9 | 2.6 | 0.00 | 0.00 | 0.00 | 68 | 1014.8 |
| 20260904221626 | 94 | 55 | 0.0 | 0.9 | 0.00 | 0.00 | 0.00 | 67 | 1014.8 |
| 20260904221128 | 94 | 59 | 0.0 | 0.0 | 0.00 | 0.00 | 0.00 | 65 | 1014.9 |
| 20260904220612 | 95 | 59 | 0.0 | 2.6 | 0.00 | 0.00 | 0.00 | 65 | 1015.0 |
| 20260904220105 | 95 | 59 | 0.0 | 2.6 | 0.00 | 0.00 | 0.00 | 63 | 1015.0 |
| 20260904215601 | 95 | 19 | 0.0 | 2.6 | 0.00 | 0.00 | 0.00 | 62 | 1015.0 |
| 20260904214548 | 96 | 53 | 0.0 | 2.6 | 0.00 | 0.00 | 0.00 | 61 | 1015.0 |
| 20260904214046 | 96 | 84 | 0.0 | 2.6 | 0.00 | 0.00 | 0.00 | 61 | 1015.1 |
| 20260904213544 | 96 | 20 | 0.0 | 0.9 | 0.00 | 0.00 | 0.00 | 62 | 1015.1 |
| 20260904213042 | 96 | 20 | 0.0 | 2.6 | 0.00 | 0.00 | 0.00 | 62 | 1015.1 |
| 20260904212511 | 96 | 20 | 0.0 | 3.5 | 0.00 | 0.00 | 0.00 | 63 | 1015.1 |
| 20260904212007 | 96 | 355 | 0.0 | 3.5 | 0.00 | 0.00 | 0.00 | 58 | 1015.1 |
| 20260904211509 | 97 | 5 | 0.0 | 0.0 | 0.00 | 0.00 | 0.00 | 61 | 1015.3 |
| 20260904210500 | 97 | 5 | 0.0 | 0.0 | 0.00 | 0.00 | 0.00 | 63 | 1015.5 |
| 20260904205930 | 97 | 5 | 0.0 | 0.0 | 0.00 | 0.00 | 0.00 | 61 | 1015.5 |
| 20260904205424 | 97 | 5 | 0.0 | 0.0 | 0.00 | 0.00 | 0.00 | 59 | 1015.6 |
| 20260904204920 | 98 | 351 | 0.9 | 6.1 | 0.00 | 0.00 | 0.00 | 61 | 1015.6 |
| 20260904204400 | 98 | 109 | 0.9 | 6.1 | 0.00 | 0.00 | 0.00 | 61 | 1015.6 |
| 20260904203857 | 99 | 299 | 0.0 | 0.9 | 0.00 | 0.00 | 0.00 | 62 | 1015.7 |
| 20260904202839 | 99 | 56 | 0.0 | 0.0 | 0.00 | 0.00 | 0.00 | 63 | 1015.8 |
| 20260904202326 | 98 | 56 | 0.9 | 2.6 | 0.00 | 0.00 | 0.00 | 61 | 1015.9 |
| 20260904201829 | 98 | 56 | 0.9 | 2.6 | 0.00 | 0.00 | 0.00 | 58 | 1016.0 |
| 20260904201325 | 98 | 58 | 0.0 | 1.7 | 0.00 | 0.00 | 0.00 | 61 | 1016.1 |
| 20260904195810 | 98 | 12 | 0.9 | 1.7 | 0.00 | 0.00 | 0.00 | 62 | 1016.5 |
| 20260904195310 | 98 | 12 | 0.9 | 1.7 | 0.00 | 0.00 | 0.00 | 63 | 1016.6 |
| 20260904194808 | 97 | 12 | 0.9 | 2.6 | 0.00 | 0.00 | 0.00 | 64 | 1016.6 |
| 20260904193756 | 97 | 86 | 0.9 | 3.5 | 0.00 | 0.00 | 0.00 | 61 | 1016.7 |
| 20260904193254 | 97 | 34 | 0.9 | 1.7 | 0.00 | 0.00 | 0.00 | 64 | 1016.7 |
| 20260904192232 | 97 | 29 | 0.9 | 3.5 | 0.00 | 0.00 | 0.00 | 58 | 1017.0 |
| 20260904191733 | 96 | 5 | 0.9 | 2.6 | 0.00 | 0.00 | 0.00 | 65 | 1017.0 |